sensor_id;sensor_type;location;lat;lon;timestamp;pressure;altitude;pressure_sealevel;temperature;humidity
45253;BME280;63171;50.520;30.486;2023-08-08T00:00:06;99408.59;;;20.36;63.59
45253;BME280;63171;50.520;30.486;2023-08-08T00:02:29;99411.59;;;20.33;63.39
45253;BME280;63171;50.520;30.486;2023-08-08T00:03:20;99400.13;;;20.33;63.73
45253;BME280;63171;50.520;30.486;2023-08-08T00:04:09;99403.78;;;20.32;63.57
45253;BME280;63171;50.520;30.486;2023-08-08T00:04:58;99394.31;;;20.29;63.33
45253;BME280;63171;50.520;30.486;2023-08-08T00:05:49;99403.44;;;20.27;63.53
45253;BME280;63171;50.520;30.486;2023-08-08T00:06:39;99403.63;;;20.25;63.46
45253;BME280;63171;50.520;30.486;2023-08-08T00:07:28;99406.28;;;20.25;63.78
45253;BME280;63171;50.520;30.486;2023-08-08T00:08:19;99406.94;;;20.27;63.74
45253;BME280;63171;50.520;30.486;2023-08-08T00:09:08;99400.31;;;20.31;63.84
45253;BME280;63171;50.520;30.486;2023-08-08T00:09:58;99397.66;;;20.31;63.86
45253;BME280;63171;50.520;30.486;2023-08-08T00:10:48;99401.97;;;20.32;63.92
45253;BME280;63171;50.520;30.486;2023-08-08T00:11:38;99403.44;;;20.35;63.45
45253;BME280;63171;50.520;30.486;2023-08-08T00:12:27;99404.44;;;20.34;63.85
45253;BME280;63171;50.520;30.486;2023-08-08T00:13:16;99405.28;;;20.34;63.63
45253;BME280;63171;50.520;30.486;2023-08-08T00:14:07;99408.94;;;20.33;63.85
45253;BME280;63171;50.520;30.486;2023-08-08T00:14:56;99408.13;;;20.33;63.62
45253;BME280;63171;50.520;30.486;2023-08-08T00:15:47;99410.94;;;20.31;63.88
45253;BME280;63171;50.520;30.486;2023-08-08T00:16:37;99414.25;;;20.33;63.85
45253;BME280;63171;50.520;30.486;2023-08-08T00:17:26;99408.94;;;20.33;63.77
45253;BME280;63171;50.520;30.486;2023-08-08T00:18:17;99411.78;;;20.32;63.60
45253;BME280;63171;50.520;30.486;2023-08-08T00:19:06;99415.25;;;20.32;64.06
45253;BME280;63171;50.520;30.486;2023-08-08T00:19:55;99416.75;;;20.35;63.92
45253;BME280;63171;50.520;30.486;2023-08-08T00:20:46;99414.25;;;20.33;63.89
45253;BME280;63171;50.520;30.486;2023-08-08T00:21:35;99422.91;;;20.35;63.56
45253;BME280;63171;50.520;30.486;2023-08-08T00:22:25;99415.09;;;20.34;64.03
45253;BME280;63171;50.520;30.486;2023-08-08T00:23:15;99417.09;;;20.24;63.38
45253;BME280;63171;50.520;30.486;2023-08-08T00:24:05;99420.59;;;20.24;63.99
45253;BME280;63171;50.520;30.486;2023-08-08T00:24:54;99423.91;;;20.26;63.70
45253;BME280;63171;50.520;30.486;2023-08-08T00:25:44;99419.25;;;20.28;63.77
45253;BME280;63171;50.520;30.486;2023-08-08T00:26:38;99421.25;;;20.26;63.69
45253;BME280;63171;50.520;30.486;2023-08-08T00:27:28;99418.25;;;20.29;63.79
45253;BME280;63171;50.520;30.486;2023-08-08T00:28:18;99418.25;;;20.29;63.97
45253;BME280;63171;50.520;30.486;2023-08-08T00:29:08;99421.59;;;20.31;63.84
45253;BME280;63171;50.520;30.486;2023-08-08T00:29:57;99426.72;;;20.33;63.75
45253;BME280;63171;50.520;30.486;2023-08-08T00:30:49;99424.06;;;20.33;63.97
45253;BME280;63171;50.520;30.486;2023-08-08T00:31:38;99426.91;;;20.31;63.92
45253;BME280;63171;50.520;30.486;2023-08-08T00:32:27;99425.25;;;20.30;63.66
45253;BME280;63171;50.520;30.486;2023-08-08T00:33:18;99418.94;;;20.31;63.97
45253;BME280;63171;50.520;30.486;2023-08-08T00:34:07;99426.91;;;20.31;63.84
45253;BME280;63171;50.520;30.486;2023-08-08T00:34:57;99430.88;;;20.27;63.92
45253;BME280;63171;50.520;30.486;2023-08-08T00:35:47;99426.22;;;20.29;63.82
45253;BME280;63171;50.520;30.486;2023-08-08T00:36:37;99421.25;;;20.26;63.58
45253;BME280;63171;50.520;30.486;2023-08-08T00:37:26;99422.06;;;20.27;63.80
45253;BME280;63171;50.520;30.486;2023-08-08T00:38:17;99425.72;;;20.26;63.78
45253;BME280;63171;50.520;30.486;2023-08-08T00:39:08;99423.06;;;20.26;64.02
45253;BME280;63171;50.520;30.486;2023-08-08T00:39:58;99424.91;;;20.25;63.86
45253;BME280;63171;50.520;30.486;2023-08-08T00:40:48;99421.94;;;20.20;63.96
45253;BME280;63171;50.520;30.486;2023-08-08T00:41:39;99423.59;;;20.21;64.00
45253;BME280;63171;50.520;30.486;2023-08-08T00:42:28;99425.75;;;20.18;64.00
45253;BME280;63171;50.520;30.486;2023-08-08T00:43:17;99419.91;;;20.14;64.05
45253;BME280;63171;50.520;30.486;2023-08-08T00:44:08;99412.13;;;20.13;64.09
45253;BME280;63171;50.520;30.486;2023-08-08T00:44:57;99418.44;;;20.12;64.33
45253;BME280;63171;50.520;30.486;2023-08-08T00:45:53;99423.56;;;20.13;64.32
45253;BME280;63171;50.520;30.486;2023-08-08T00:46:43;99417.25;;;20.14;64.41
45253;BME280;63171;50.520;30.486;2023-08-08T00:47:34;99419.09;;;20.14;64.21
45253;BME280;63171;50.520;30.486;2023-08-08T00:48:24;99419.25;;;20.12;64.23
45253;BME280;63171;50.520;30.486;2023-08-08T00:49:14;99419.44;;;20.11;64.47
45253;BME280;63171;50.520;30.486;2023-08-08T00:50:05;99422.91;;;20.11;64.24
45253;BME280;63171;50.520;30.486;2023-08-08T00:50:55;99419.25;;;20.12;64.15
45253;BME280;63171;50.520;30.486;2023-08-08T00:51:45;99419.25;;;20.12;64.24
45253;BME280;63171;50.520;30.486;2023-08-08T00:52:35;99421.25;;;20.10;64.37
45253;BME280;63171;50.520;30.486;2023-08-08T00:53:27;99421.44;;;20.08;64.54
45253;BME280;63171;50.520;30.486;2023-08-08T00:54:17;99423.91;;;20.10;64.67
45253;BME280;63171;50.520;30.486;2023-08-08T00:55:07;99424.75;;;20.11;64.65
45253;BME280;63171;50.520;30.486;2023-08-08T00:55:57;99422.25;;;20.09;64.59
45253;BME280;63171;50.520;30.486;2023-08-08T00:56:47;99415.47;;;20.06;64.77
45253;BME280;63171;50.520;30.486;2023-08-08T00:57:37;99419.78;;;20.07;64.64
45253;BME280;63171;50.520;30.486;2023-08-08T00:58:27;99417.28;;;20.06;64.77
45253;BME280;63171;50.520;30.486;2023-08-08T00:59:17;99421.59;;;20.07;64.58
45253;BME280;63171;50.520;30.486;2023-08-08T01:00:08;99420.13;;;20.04;64.95
45253;BME280;63171;50.520;30.486;2023-08-08T01:01:00;99415.78;;;20.03;64.87
45253;BME280;63171;50.520;30.486;2023-08-08T01:01:50;99419.78;;;20.07;64.90
45253;BME280;63171;50.520;30.486;2023-08-08T01:02:40;99419.78;;;20.07;65.04
45253;BME280;63171;50.520;30.486;2023-08-08T01:03:29;99416.28;;;20.07;65.05
45253;BME280;63171;50.520;30.486;2023-08-08T01:04:19;99420.94;;;20.05;65.07
45253;BME280;63171;50.520;30.486;2023-08-08T01:05:09;99424.91;;;20.01;64.83
45253;BME280;63171;50.520;30.486;2023-08-08T01:06:01;99416.75;;;20.02;64.75
45253;BME280;63171;50.520;30.486;2023-08-08T01:06:53;99420.41;;;20.01;65.13
45253;BME280;63171;50.520;30.486;2023-08-08T01:07:46;99419.28;;;20.04;64.95
45253;BME280;63171;50.520;30.486;2023-08-08T01:08:39;99423.09;;;20.01;65.22
45253;BME280;63171;50.520;30.486;2023-08-08T01:09:31;99423.09;;;20.01;65.16
45253;BME280;63171;50.520;30.486;2023-08-08T01:10:24;99418.75;;;20.00;65.34
45253;BME280;63171;50.520;30.486;2023-08-08T01:11:15;99425.75;;;20.01;65.32
45253;BME280;63171;50.520;30.486;2023-08-08T01:12:05;99417.75;;;20.01;65.19
45253;BME280;63171;50.520;30.486;2023-08-08T01:12:59;99418.75;;;20.00;65.37
45253;BME280;63171;50.520;30.486;2023-08-08T01:13:51;99419.59;;;20.01;65.40
45253;BME280;63171;50.520;30.486;2023-08-08T01:14:42;99419.59;;;20.01;65.46
45253;BME280;63171;50.520;30.486;2023-08-08T01:15:34;99419.28;;;20.04;65.44
45253;BME280;63171;50.520;30.486;2023-08-08T01:16:26;99420.41;;;20.01;65.51
45253;BME280;63171;50.520;30.486;2023-08-08T01:17:19;99423.25;;;20.00;65.38
45253;BME280;63171;50.520;30.486;2023-08-08T01:18:11;99434.06;;;19.98;65.26
45253;BME280;63171;50.520;30.486;2023-08-08T01:19:00;99429.72;;;19.97;65.27
45253;BME280;63171;50.520;30.486;2023-08-08T01:19:50;99427.06;;;19.97;65.32
45253;BME280;63171;50.520;30.486;2023-08-08T01:20:41;99428.25;;;19.95;65.36
45253;BME280;63171;50.520;30.486;2023-08-08T01:21:31;99428.91;;;19.97;65.58
45253;BME280;63171;50.520;30.486;2023-08-08T01:22:27;99432.41;;;19.97;65.34
45253;BME280;63171;50.520;30.486;2023-08-08T01:23:23;99435.22;;;19.96;65.52
45253;BME280;63171;50.520;30.486;2023-08-08T01:24:19;99427.06;;;19.97;65.56
45253;BME280;63171;50.520;30.486;2023-08-08T01:25:10;99434.38;;;19.95;65.44
45253;BME280;63171;50.520;30.486;2023-08-08T01:25:59;99431.72;;;19.95;65.60
45253;BME280;63171;50.520;30.486;2023-08-08T01:26:50;99432.72;;;19.94;65.50
45253;BME280;63171;50.520;30.486;2023-08-08T01:27:40;99440.53;;;19.96;65.70
45253;BME280;63171;50.520;30.486;2023-08-08T01:28:29;99441.69;;;19.93;65.65
45253;BME280;63171;50.520;30.486;2023-08-08T01:29:19;99433.91;;;19.92;65.58
45253;BME280;63171;50.520;30.486;2023-08-08T01:30:09;99439.38;;;19.90;65.56
45253;BME280;63171;50.520;30.486;2023-08-08T01:30:59;99437.88;;;19.88;65.62
45253;BME280;63171;50.520;30.486;2023-08-08T01:31:49;99442.69;;;19.84;65.44
45253;BME280;63171;50.520;30.486;2023-08-08T01:32:39;99440.69;;;19.86;65.61
45253;BME280;63171;50.520;30.486;2023-08-08T01:33:29;99441.34;;;19.88;65.45
45253;BME280;63171;50.520;30.486;2023-08-08T01:34:19;99437.69;;;19.89;65.84
45253;BME280;63171;50.520;30.486;2023-08-08T01:35:09;99438.69;;;19.88;65.49
45253;BME280;63171;50.520;30.486;2023-08-08T01:36:00;99442.53;;;19.86;65.54
45253;BME280;63171;50.520;30.486;2023-08-08T01:36:53;99445.00;;;19.87;65.52
45253;BME280;63171;50.520;30.486;2023-08-08T01:37:45;99447.84;;;19.86;65.82
45253;BME280;63171;50.520;30.486;2023-08-08T01:38:38;99444.19;;;19.87;65.82
45253;BME280;63171;50.520;30.486;2023-08-08T01:39:31;99445.19;;;19.86;65.68
45253;BME280;63171;50.520;30.486;2023-08-08T01:40:22;99453.31;;;19.84;65.80
45253;BME280;63171;50.520;30.486;2023-08-08T01:41:12;99454.16;;;19.85;65.94
45253;BME280;63171;50.520;30.486;2023-08-08T01:42:02;99453.31;;;19.84;65.66
45253;BME280;63171;50.520;30.486;2023-08-08T01:42:53;99448.16;;;19.83;65.76
45253;BME280;63171;50.520;30.486;2023-08-08T01:43:42;99450.16;;;19.81;65.78
45253;BME280;63171;50.520;30.486;2023-08-08T01:44:32;99455.16;;;19.84;65.73
45253;BME280;63171;50.520;30.486;2023-08-08T01:45:24;99448.16;;;19.83;65.63
45253;BME280;63171;50.520;30.486;2023-08-08T01:46:13;99449.81;;;19.84;65.62
45253;BME280;63171;50.520;30.486;2023-08-08T01:47:05;99455.16;;;19.84;66.09
45253;BME280;63171;50.520;30.486;2023-08-08T01:47:54;99453.31;;;19.84;65.76
45253;BME280;63171;50.520;30.486;2023-08-08T01:48:44;99462.47;;;19.82;65.71
45253;BME280;63171;50.520;30.486;2023-08-08T01:49:35;99459.78;;;19.82;65.89
45253;BME280;63171;50.520;30.486;2023-08-08T01:50:24;99458.31;;;19.79;65.96
45253;BME280;63171;50.520;30.486;2023-08-08T01:51:15;99454.66;;;19.80;65.97
45253;BME280;63171;50.520;30.486;2023-08-08T01:52:05;99463.63;;;19.79;65.94
45253;BME280;63171;50.520;30.486;2023-08-08T01:52:55;99462.63;;;19.80;66.04
45253;BME280;63171;50.520;30.486;2023-08-08T01:53:44;99463.44;;;19.81;65.69
45253;BME280;63171;50.520;30.486;2023-08-08T01:54:36;99454.66;;;19.80;66.06
45253;BME280;63171;50.520;30.486;2023-08-08T01:55:26;99462.28;;;19.83;66.10
45253;BME280;63171;50.520;30.486;2023-08-08T01:56:15;99459.13;;;19.80;65.99
45253;BME280;63171;50.520;30.486;2023-08-08T01:57:05;99462.63;;;19.80;66.22
45253;BME280;63171;50.520;30.486;2023-08-08T01:57:55;99464.44;;;19.80;65.92
45253;BME280;63171;50.520;30.486;2023-08-08T01:58:44;99460.31;;;19.77;66.15
45253;BME280;63171;50.520;30.486;2023-08-08T01:59:35;99467.09;;;19.71;66.04
45253;BME280;63171;50.520;30.486;2023-08-08T02:00:25;99459.28;;;19.70;65.85
45253;BME280;63171;50.520;30.486;2023-08-08T02:01:16;99469.75;;;19.71;66.11
45253;BME280;63171;50.520;30.486;2023-08-08T02:02:07;99466.75;;;19.74;66.05
45253;BME280;63171;50.520;30.486;2023-08-08T02:02:57;99470.09;;;19.76;66.26
45253;BME280;63171;50.520;30.486;2023-08-08T02:03:47;99466.44;;;19.77;66.13
45253;BME280;63171;50.520;30.486;2023-08-08T02:04:38;99464.78;;;19.76;66.25
45253;BME280;63171;50.520;30.486;2023-08-08T02:05:27;99469.56;;;19.73;66.08
45253;BME280;63171;50.520;30.486;2023-08-08T02:06:16;99467.75;;;19.73;66.23
45253;BME280;63171;50.520;30.486;2023-08-08T02:07:07;99461.78;;;19.71;66.34
45253;BME280;63171;50.520;30.486;2023-08-08T02:07:56;99465.41;;;19.70;66.34
45253;BME280;63171;50.520;30.486;2023-08-08T02:08:46;99458.44;;;19.69;66.41
45253;BME280;63171;50.520;30.486;2023-08-08T02:09:38;99461.28;;;19.68;66.38
45253;BME280;63171;50.520;30.486;2023-08-08T02:10:28;99465.91;;;19.66;66.33
45253;BME280;63171;50.520;30.486;2023-08-08T02:11:17;99464.44;;;19.63;66.33
45253;BME280;63171;50.520;30.486;2023-08-08T02:12:08;99466.56;;;19.60;66.33
45253;BME280;63171;50.520;30.486;2023-08-08T02:12:58;99470.88;;;19.61;66.35
45253;BME280;63171;50.520;30.486;2023-08-08T02:13:47;99479.69;;;19.61;66.42
45253;BME280;63171;50.520;30.486;2023-08-08T02:14:37;99472.41;;;19.63;66.69
45253;BME280;63171;50.520;30.486;2023-08-08T02:15:27;99477.00;;;19.61;66.81
45253;BME280;63171;50.520;30.486;2023-08-08T02:16:16;99473.38;;;19.62;66.57
45253;BME280;63171;50.520;30.486;2023-08-08T02:17:06;99476.34;;;19.59;66.76
45253;BME280;63171;50.520;30.486;2023-08-08T02:17:56;99478.00;;;19.60;66.85
45253;BME280;63171;50.520;30.486;2023-08-08T02:18:46;99476.34;;;19.59;66.79
45253;BME280;63171;50.520;30.486;2023-08-08T02:19:36;99477.34;;;19.58;66.91
45253;BME280;63171;50.520;30.486;2023-08-08T02:20:25;99481.00;;;19.57;66.92
45253;BME280;63171;50.520;30.486;2023-08-08T02:21:15;99479.34;;;19.56;66.87
45253;BME280;63171;50.520;30.486;2023-08-08T02:22:05;99489.28;;;19.54;66.77
45253;BME280;63171;50.520;30.486;2023-08-08T02:22:55;99485.78;;;19.54;66.93
45253;BME280;63171;50.520;30.486;2023-08-08T02:23:44;99484.97;;;19.53;67.09
45253;BME280;63171;50.520;30.486;2023-08-08T02:24:34;99484.13;;;19.53;66.95
45253;BME280;63171;50.520;30.486;2023-08-08T02:25:26;99485.94;;;19.52;67.02
45253;BME280;63171;50.520;30.486;2023-08-08T02:26:15;99491.25;;;19.52;67.09
45253;BME280;63171;50.520;30.486;2023-08-08T02:27:06;99495.56;;;19.53;67.00
45253;BME280;63171;50.520;30.486;2023-08-08T02:27:55;99492.09;;;19.53;66.95
45253;BME280;63171;50.520;30.486;2023-08-08T02:28:46;99492.25;;;19.51;67.27
45253;BME280;63171;50.520;30.486;2023-08-08T02:29:35;99488.06;;;19.48;67.11
45253;BME280;63171;50.520;30.486;2023-08-08T02:30:26;99497.03;;;19.47;67.39
45253;BME280;63171;50.520;30.486;2023-08-08T02:31:15;99493.56;;;19.47;67.35
45253;BME280;63171;50.520;30.486;2023-08-08T02:32:09;99500.69;;;19.46;67.48
45253;BME280;63171;50.520;30.486;2023-08-08T02:32:59;99501.53;;;19.47;67.33
45253;BME280;63171;50.520;30.486;2023-08-08T02:33:49;99498.88;;;19.47;67.51
45253;BME280;63171;50.520;30.486;2023-08-08T02:34:39;99494.53;;;19.46;67.42
45253;BME280;63171;50.520;30.486;2023-08-08T02:35:30;99495.72;;;19.43;67.43
45253;BME280;63171;50.520;30.486;2023-08-08T02:36:19;99496.69;;;19.42;67.66
45253;BME280;63171;50.520;30.486;2023-08-08T02:37:09;99498.38;;;19.43;67.46
45253;BME280;63171;50.520;30.486;2023-08-08T02:37:59;99498.53;;;19.42;67.61
45253;BME280;63171;50.520;30.486;2023-08-08T02:38:48;99496.88;;;19.41;67.70
45253;BME280;63171;50.520;30.486;2023-08-08T02:39:43;99496.88;;;19.41;67.65
45253;BME280;63171;50.520;30.486;2023-08-08T02:40:34;99496.88;;;19.41;67.96
45253;BME280;63171;50.520;30.486;2023-08-08T02:41:24;99498.38;;;19.43;67.88
45253;BME280;63171;50.520;30.486;2023-08-08T02:42:14;99492.22;;;19.43;67.82
45253;BME280;63171;50.520;30.486;2023-08-08T02:43:03;99491.06;;;19.45;67.93
45253;BME280;63171;50.520;30.486;2023-08-08T02:43:53;99489.41;;;19.44;68.28
45253;BME280;63171;50.520;30.486;2023-08-08T02:44:43;99490.22;;;19.45;68.12
45253;BME280;63171;50.520;30.486;2023-08-08T02:45:33;99495.53;;;19.45;68.08
45253;BME280;63171;50.520;30.486;2023-08-08T02:46:22;99497.69;;;19.49;68.21
45253;BME280;63171;50.520;30.486;2023-08-08T02:47:12;99494.38;;;19.47;68.08
45253;BME280;63171;50.520;30.486;2023-08-08T02:48:02;99495.22;;;19.48;68.07
45253;BME280;63171;50.520;30.486;2023-08-08T02:48:53;99490.72;;;19.48;68.27
45253;BME280;63171;50.520;30.486;2023-08-08T02:49:42;99496.03;;;19.48;68.12
45253;BME280;63171;50.520;30.486;2023-08-08T02:50:33;99502.19;;;19.49;68.25
45253;BME280;63171;50.520;30.486;2023-08-08T02:51:22;99505.38;;;19.53;68.42
45253;BME280;63171;50.520;30.486;2023-08-08T02:52:12;99506.19;;;19.53;68.34
45253;BME280;63171;50.520;30.486;2023-08-08T02:53:02;99498.09;;;19.55;68.43
45253;BME280;63171;50.520;30.486;2023-08-08T02:53:57;99507.56;;;19.57;68.27
45253;BME280;63171;50.520;30.486;2023-08-08T02:54:48;99504.75;;;19.59;68.19
45253;BME280;63171;50.520;30.486;2023-08-08T02:55:39;99503.75;;;19.60;68.29
45253;BME280;63171;50.520;30.486;2023-08-08T02:56:28;99508.06;;;19.61;68.48
45253;BME280;63171;50.520;30.486;2023-08-08T02:57:19;99504.41;;;19.62;68.27
45253;BME280;63171;50.520;30.486;2023-08-08T02:58:09;99505.94;;;19.64;68.38
45253;BME280;63171;50.520;30.486;2023-08-08T02:58:59;99509.44;;;19.65;68.27
45253;BME280;63171;50.520;30.486;2023-08-08T02:59:49;99501.78;;;19.70;68.35
45253;BME280;63171;50.520;30.486;2023-08-08T03:00:38;99508.75;;;19.71;68.33
45253;BME280;63171;50.520;30.486;2023-08-08T03:01:32;99505.78;;;19.74;68.40
45253;BME280;63171;50.520;30.486;2023-08-08T03:02:23;99500.47;;;19.74;68.61
45253;BME280;63171;50.520;30.486;2023-08-08T03:03:14;99507.31;;;19.76;68.13
45253;BME280;63171;50.520;30.486;2023-08-08T03:04:05;99501.81;;;19.78;68.16
45253;BME280;63171;50.520;30.486;2023-08-08T03:04:55;99503.47;;;19.79;68.10
45253;BME280;63171;50.520;30.486;2023-08-08T03:05:47;99506.81;;;19.81;68.15
45253;BME280;63171;50.520;30.486;2023-08-08T03:06:39;99504.81;;;19.83;67.93
45253;BME280;63171;50.520;30.486;2023-08-08T03:07:29;99504.63;;;19.85;68.09
45253;BME280;63171;50.520;30.486;2023-08-08T03:08:20;99500.66;;;19.89;68.09
45253;BME280;63171;50.520;30.486;2023-08-08T03:09:09;99501.19;;;19.92;68.05
45253;BME280;63171;50.520;30.486;2023-08-08T03:10:01;99507.16;;;19.94;68.22
45253;BME280;63171;50.520;30.486;2023-08-08T03:11:10;99502.34;;;19.98;68.11
45253;BME280;63171;50.520;30.486;2023-08-08T03:12:01;99508.31;;;20.00;67.92
45253;BME280;63171;50.520;30.486;2023-08-08T03:12:54;99507.16;;;20.02;68.10
45253;BME280;63171;50.520;30.486;2023-08-08T03:13:45;99510.16;;;20.07;67.85
45253;BME280;63171;50.520;30.486;2023-08-08T03:14:34;99504.50;;;20.11;67.86
45253;BME280;63171;50.520;30.486;2023-08-08T03:15:24;99511.16;;;20.15;67.74
45253;BME280;63171;50.520;30.486;2023-08-08T03:16:15;99505.53;;;20.18;67.93
45253;BME280;63171;50.520;30.486;2023-08-08T03:17:05;99509.66;;;20.20;67.72
45253;BME280;63171;50.520;30.486;2023-08-08T03:17:55;99509.50;;;20.22;67.74
45253;BME280;63171;50.520;30.486;2023-08-08T03:18:45;99508.16;;;20.26;67.40
45253;BME280;63171;50.520;30.486;2023-08-08T03:19:35;99510.47;;;20.29;67.32
45253;BME280;63171;50.520;30.486;2023-08-08T03:20:26;99516.16;;;20.34;67.26
45253;BME280;63171;50.520;30.486;2023-08-08T03:21:16;99519.47;;;20.36;67.41
45253;BME280;63171;50.520;30.486;2023-08-08T03:22:07;99527.94;;;20.40;67.08
45253;BME280;63171;50.520;30.486;2023-08-08T03:23:00;99525.81;;;20.43;67.02
45253;BME280;63171;50.520;30.486;2023-08-08T03:23:50;99530.00;;;20.46;67.21
45253;BME280;63171;50.520;30.486;2023-08-08T03:24:41;99516.19;;;20.50;66.92
45253;BME280;63171;50.520;30.486;2023-08-08T03:25:30;99518.00;;;20.50;66.99
45253;BME280;63171;50.520;30.486;2023-08-08T03:26:21;99516.66;;;20.54;66.73
45253;BME280;63171;50.520;30.486;2023-08-08T03:27:11;99516.84;;;20.60;66.34
45253;BME280;63171;50.520;30.486;2023-08-08T03:28:01;99516.31;;;20.65;66.56
45253;BME280;63171;50.520;30.486;2023-08-08T03:28:51;99521.13;;;20.70;66.25
45253;BME280;63171;50.520;30.486;2023-08-08T03:29:47;99520.66;;;20.74;66.61
45253;BME280;63171;50.520;30.486;2023-08-08T03:30:39;99520.13;;;20.79;66.28
45253;BME280;63171;50.520;30.486;2023-08-08T03:31:32;99518.78;;;20.83;66.15
45253;BME280;63171;50.520;30.486;2023-08-08T03:32:23;99523.59;;;20.87;65.79
45253;BME280;63171;50.520;30.486;2023-08-08T03:33:13;99526.09;;;20.89;65.68
45253;BME280;63171;50.520;30.486;2023-08-08T03:34:02;99535.22;;;20.94;65.69
45253;BME280;63171;50.520;30.486;2023-08-08T03:34:54;99539.22;;;20.99;65.67
45253;BME280;63171;50.520;30.486;2023-08-08T03:35:44;99537.72;;;21.04;65.51
45253;BME280;63171;50.520;30.486;2023-08-08T03:36:33;99540.03;;;21.07;65.37
45253;BME280;63171;50.520;30.486;2023-08-08T03:37:24;99541.50;;;21.10;65.11
45253;BME280;63171;50.520;30.486;2023-08-08T03:38:13;99536.03;;;21.11;64.99
45253;BME280;63171;50.520;30.486;2023-08-08T03:39:03;99540.84;;;21.16;64.79
45253;BME280;63171;50.520;30.486;2023-08-08T03:39:57;99533.50;;;21.18;64.63
45253;BME280;63171;50.520;30.486;2023-08-08T03:40:46;99535.81;;;21.21;64.25
45253;BME280;63171;50.520;30.486;2023-08-08T03:41:37;99536.47;;;21.23;64.42
45253;BME280;63171;50.520;30.486;2023-08-08T03:42:28;99541.34;;;21.28;64.04
45253;BME280;63171;50.520;30.486;2023-08-08T03:43:17;99537.66;;;21.29;63.85
45253;BME280;63171;50.520;30.486;2023-08-08T03:44:07;99536.50;;;21.31;63.99
45253;BME280;63171;50.520;30.486;2023-08-08T03:44:57;99539.81;;;21.33;63.78
45253;BME280;63171;50.520;30.486;2023-08-08T03:45:47;99538.63;;;21.36;63.42
45253;BME280;63171;50.520;30.486;2023-08-08T03:46:36;99540.97;;;21.39;63.59
45253;BME280;63171;50.520;30.486;2023-08-08T03:47:27;99546.13;;;21.40;63.13
45253;BME280;63171;50.520;30.486;2023-08-08T03:48:16;99539.44;;;21.44;62.96
45253;BME280;63171;50.520;30.486;2023-08-08T03:49:06;99551.56;;;21.55;62.91
45253;BME280;63171;50.520;30.486;2023-08-08T03:49:58;99547.34;;;21.61;62.71
45253;BME280;63171;50.520;30.486;2023-08-08T03:50:48;99558.53;;;21.56;62.60
45253;BME280;63171;50.520;30.486;2023-08-08T03:51:38;99539.41;;;21.52;62.28
45253;BME280;63171;50.520;30.486;2023-08-08T03:52:28;99535.69;;;21.62;62.35
45253;BME280;63171;50.520;30.486;2023-08-08T03:53:18;99556.13;;;21.69;62.36
45253;BME280;63171;50.520;30.486;2023-08-08T03:54:08;99552.66;;;21.69;61.81
45253;BME280;63171;50.520;30.486;2023-08-08T03:54:58;99552.94;;;21.74;61.66
45253;BME280;63171;50.520;30.486;2023-08-08T03:55:48;99548.16;;;21.69;61.71
45253;BME280;63171;50.520;30.486;2023-08-08T03:56:41;99553.94;;;21.73;61.60
45253;BME280;63171;50.520;30.486;2023-08-08T03:57:31;99557.25;;;21.75;61.54
45253;BME280;63171;50.520;30.486;2023-08-08T03:58:22;99555.44;;;21.75;61.36
45253;BME280;63171;50.520;30.486;2023-08-08T03:59:11;99554.59;;;21.75;61.05
45253;BME280;63171;50.520;30.486;2023-08-08T04:00:01;99555.44;;;21.75;61.04
45253;BME280;63171;50.520;30.486;2023-08-08T04:01:02;99551.59;;;21.78;60.59
45253;BME280;63171;50.520;30.486;2023-08-08T04:01:52;99552.25;;;21.80;60.74
45253;BME280;63171;50.520;30.486;2023-08-08T04:02:42;99557.22;;;21.83;60.49
45253;BME280;63171;50.520;30.486;2023-08-08T04:03:31;99563.69;;;21.89;60.51
45253;BME280;63171;50.520;30.486;2023-08-08T04:04:21;99561.03;;;21.89;60.41
45253;BME280;63171;50.520;30.486;2023-08-08T04:05:12;99558.03;;;21.92;60.05
45253;BME280;63171;50.520;30.486;2023-08-08T04:06:01;99564.84;;;21.94;59.93
45253;BME280;63171;50.520;30.486;2023-08-08T04:06:51;99565.50;;;21.96;60.08
45253;BME280;63171;50.520;30.486;2023-08-08T04:07:41;99564.94;;;22.01;59.66
45253;BME280;63171;50.520;30.486;2023-08-08T04:08:31;99570.28;;;22.09;59.96
45253;BME280;63171;50.520;30.486;2023-08-08T04:09:22;99569.09;;;22.11;59.80
45253;BME280;63171;50.520;30.486;2023-08-08T04:10:12;99571.94;;;22.10;59.29
45253;BME280;63171;50.520;30.486;2023-08-08T04:11:02;99570.47;;;22.07;59.48
45253;BME280;63171;50.520;30.486;2023-08-08T04:11:53;99580.78;;;22.10;59.40
45253;BME280;63171;50.520;30.486;2023-08-08T04:12:43;99577.09;;;22.11;59.25
45253;BME280;63171;50.520;30.486;2023-08-08T04:13:33;99576.72;;;22.15;59.17
45253;BME280;63171;50.520;30.486;2023-08-08T04:14:22;99579.72;;;22.20;59.16
45253;BME280;63171;50.520;30.486;2023-08-08T04:15:13;99584.03;;;22.21;58.64
45253;BME280;63171;50.520;30.486;2023-08-08T04:16:02;99582.03;;;22.23;58.89
45253;BME280;63171;50.520;30.486;2023-08-08T04:16:51;99584.47;;;22.32;58.95
45253;BME280;63171;50.520;30.486;2023-08-08T04:17:42;99587.41;;;22.37;58.59
45253;BME280;63171;50.520;30.486;2023-08-08T04:18:31;99593.59;;;22.38;58.49
45253;BME280;63171;50.520;30.486;2023-08-08T04:19:20;99594.22;;;22.40;58.40
45253;BME280;63171;50.520;30.486;2023-08-08T04:20:12;99598.28;;;22.36;58.60
45253;BME280;63171;50.520;30.486;2023-08-08T04:21:02;99599.09;;;22.36;58.33
45253;BME280;63171;50.520;30.486;2023-08-08T04:21:53;99600.75;;;22.37;57.97
45253;BME280;63171;50.520;30.486;2023-08-08T04:22:42;99598.56;;;22.41;58.13
45253;BME280;63171;50.520;30.486;2023-08-08T04:23:32;99605.88;;;22.47;57.86
45253;BME280;63171;50.520;30.486;2023-08-08T04:24:22;99603.66;;;22.51;58.12
45253;BME280;63171;50.520;30.486;2023-08-08T04:25:11;99601.47;;;22.54;57.78